Time;durP1;ratioP1;P1;durP2;ratioP2;P2;SDS_P1;SDS_P2;PMS_P1;PMS_P2;Temp;Humidity;BMP_temperature;BMP_pressure;BME280_temperature;BME280_humidity;BME280_pressure;Samples;Min_cycle;Max_cycle;Signal;HPM_P1;HPM_P2
2022/07/17 00:02:12;;;;;;;3.17;2.97;;;22.20;39.70;;;;;;5107253;27;21031;-86
2022/07/17 00:04:40;;;;;;;2.93;2.70;;;22.10;40.30;;;;;;5123501;27;20851;-86
2022/07/17 00:07:07;;;;;;;2.80;2.60;;;22.10;40.10;;;;;;5142234;27;20988;-87
2022/07/17 00:09:34;;;;;;;3.10;2.60;;;22.10;39.90;;;;;;5115312;27;20461;-86
2022/07/17 00:12:02;;;;;;;4.10;2.80;;;22.00;39.80;;;;;;5098804;27;20433;-86
2022/07/17 00:14:29;;;;;;;2.50;2.40;;;21.90;40.20;;;;;;5105738;27;20559;-87
2022/07/17 00:16:57;;;;;;;3.17;2.73;;;21.90;40.20;;;;;;5111611;27;20484;-88
2022/07/17 00:22:42;;;;;;;6.30;2.83;;;21.90;40.20;;;;;;5103856;27;20904;-86
2022/07/17 00:25:10;;;;;;;3.07;2.83;;;21.80;40.60;;;;;;5119281;27;20456;-87
2022/07/17 00:31:45;;;;;;;4.07;3.30;;;21.60;41.30;;;;;;5122805;27;20802;-84
2022/07/17 00:34:12;;;;;;;3.17;2.80;;;21.60;42.00;;;;;;5138850;27;20552;-86
2022/07/17 00:36:39;;;;;;;4.03;2.60;;;21.50;42.00;;;;;;5102027;27;20978;-86
2022/07/17 00:39:06;;;;;;;7.97;3.63;;;21.50;42.00;;;;;;5135444;27;20449;-86
2022/07/17 00:41:34;;;;;;;3.20;2.90;;;21.50;42.20;;;;;;5106612;27;21272;-85
2022/07/17 00:44:05;;;;;;;2.90;2.67;;;21.50;42.40;;;;;;5140293;27;20441;-88
2022/07/17 00:46:32;;;;;;;2.90;2.53;;;21.40;42.20;;;;;;5120811;27;20449;-86
2022/07/17 00:49:00;;;;;;;2.90;2.70;;;21.40;42.00;;;;;;5121627;27;20452;-86
2022/07/17 00:55:34;;;;;;;3.37;3.07;;;21.30;41.80;;;;;;5113598;27;20939;-87
2022/07/17 01:02:11;;;;;;;3.10;2.73;;;21.10;42.50;;;;;;5138315;27;20445;-86
2022/07/17 01:09:38;;;;;;;2.73;2.53;;;21.00;43.20;;;;;;5095889;27;20983;-86
2022/07/17 01:12:09;;;;;;;3.03;2.83;;;20.90;42.70;;;;;;5137956;27;20468;-85
2022/07/17 01:14:37;;;;;;;3.50;3.20;;;20.70;42.90;;;;;;5141212;27;20464;-85
2022/07/17 01:17:04;;;;;;;3.27;3.00;;;20.80;42.70;;;;;;5133987;27;20509;-87
2022/07/17 01:19:31;;;;;;;3.97;3.03;;;20.80;42.70;;;;;;5123337;27;20474;-86
2022/07/17 01:21:59;;;;;;;3.10;2.50;;;20.80;42.70;;;;;;5123726;27;20441;-86
2022/07/17 01:24:27;;;;;;;2.77;2.57;;;20.80;42.30;;;;;;5118533;27;20436;-86
2022/07/17 01:26:54;;;;;;;3.00;2.80;;;20.70;42.40;;;;;;5122048;27;20854;-86
2022/07/17 01:29:21;;;;;;;3.13;2.80;;;20.60;43.00;;;;;;5121654;27;20456;-87
2022/07/17 01:31:48;;;;;;;9.63;3.70;;;20.50;42.60;;;;;;5087547;27;20944;-86
2022/07/17 01:34:15;;;;;;;3.10;2.80;;;20.50;42.50;;;;;;5091153;27;20752;-87
2022/07/17 01:36:42;;;;;;;3.70;2.93;;;20.50;43.20;;;;;;5124670;27;20445;-87
2022/07/17 01:40:01;;;;;;;3.33;3.03;;;20.50;43.80;;;;;;5116237;27;20449;-85
2022/07/17 01:43:45;;;;;;;3.43;2.60;;;20.50;43.90;;;;;;5121507;27;20495;-85
2022/07/17 01:46:14;;;;;;;2.80;2.60;;;20.40;43.90;;;;;;5139873;27;20452;-86
2022/07/17 01:48:41;;;;;;;3.43;3.13;;;20.40;44.00;;;;;;5103647;27;20529;-86
2022/07/17 01:51:08;;;;;;;3.30;3.00;;;20.30;44.10;;;;;;5135704;27;21207;-87
2022/07/17 01:53:35;;;;;;;2.93;2.63;;;20.30;43.70;;;;;;5143626;27;20509;-88
2022/07/17 01:56:02;;;;;;;2.93;2.73;;;20.30;44.20;;;;;;5106466;27;20963;-86
2022/07/17 01:58:29;;;;;;;3.40;3.07;;;20.20;43.60;;;;;;5140408;27;20460;-86
2022/07/17 02:00:56;;;;;;;3.77;3.23;;;20.20;43.60;;;;;;5122871;27;20472;-87
2022/07/17 02:03:25;;;;;;;3.77;3.47;;;20.20;43.80;;;;;;5120465;27;20533;-86
2022/07/17 02:05:52;;;;;;;4.20;3.20;;;20.10;44.00;;;;;;5141085;27;20952;-87
2022/07/17 02:08:19;;;;;;;3.27;3.00;;;20.10;44.50;;;;;;5119909;27;20456;-85
2022/07/17 02:10:46;;;;;;;3.40;3.20;;;20.10;44.70;;;;;;5121219;27;20468;-86
2022/07/17 02:13:13;;;;;;;4.03;2.60;;;20.10;45.10;;;;;;5095906;27;20532;-86
2022/07/17 02:15:40;;;;;;;4.10;2.80;;;20.10;44.80;;;;;;5141219;27;20501;-87
2022/07/17 02:18:08;;;;;;;3.67;3.37;;;20.10;44.50;;;;;;5112608;27;20512;-86
2022/07/17 02:20:36;;;;;;;3.40;3.10;;;20.00;44.40;;;;;;5094915;27;20496;-87
2022/07/17 02:23:03;;;;;;;3.40;3.10;;;19.90;44.80;;;;;;5123518;27;20467;-86
2022/07/17 02:25:31;;;;;;;3.77;3.47;;;19.80;44.70;;;;;;5143685;27;20524;-87
2022/07/17 02:27:58;;;;;;;4.00;3.70;;;19.80;44.60;;;;;;5142702;27;20449;-86
2022/07/17 02:30:25;;;;;;;3.27;2.97;;;19.80;44.40;;;;;;5141754;27;20464;-86
2022/07/17 02:32:52;;;;;;;3.27;2.97;;;19.80;44.50;;;;;;5120990;27;20991;-86
2022/07/17 02:35:19;;;;;;;4.60;3.33;;;19.70;44.80;;;;;;5138800;27;20441;-86
2022/07/17 02:37:48;;;;;;;3.80;3.50;;;19.70;45.10;;;;;;5105364;27;20451;-87
2022/07/17 02:40:18;;;;;;;4.63;3.20;;;19.60;44.90;;;;;;5136579;27;20484;-87
2022/07/17 02:42:45;;;;;;;2.90;2.70;;;19.60;44.90;;;;;;5098564;27;20586;-87
2022/07/17 02:45:12;;;;;;;3.73;3.40;;;19.60;45.30;;;;;;5083004;27;20834;-87
2022/07/17 02:47:39;;;;;;;3.73;3.30;;;19.50;46.10;;;;;;5124210;27;20460;-87
2022/07/17 02:50:31;;;;;;;3.57;3.27;;;19.40;46.60;;;;;;5123151;27;20490;-86
2022/07/17 02:53:00;;;;;;;3.57;3.27;;;19.40;46.60;;;;;;5123999;27;20566;-86
2022/07/17 02:56:18;;;;;;;3.53;3.27;;;19.40;46.50;;;;;;5140530;27;20456;-86
2022/07/17 02:58:45;;;;;;;3.33;3.13;;;19.40;46.50;;;;;;5100493;27;20451;-86
2022/07/17 03:01:12;;;;;;;6.90;3.80;;;19.40;46.30;;;;;;5096804;27;20892;-86
2022/07/17 03:03:40;;;;;;;3.50;3.20;;;19.30;46.30;;;;;;5101691;27;20476;-87
2022/07/17 03:06:32;;;;;;;3.87;3.57;;;19.30;46.40;;;;;;5119069;27;20843;-86
2022/07/17 03:09:01;;;;;;;4.53;3.80;;;19.20;46.60;;;;;;5132187;27;20477;-85
2022/07/17 03:11:27;;;;;;;3.80;3.50;;;19.20;46.30;;;;;;5083274;27;21353;-86
2022/07/17 03:13:54;;;;;;;3.87;3.60;;;19.20;46.10;;;;;;5104712;27;21315;-83
2022/07/17 03:16:21;;;;;;;3.93;3.60;;;19.20;46.30;;;;;;5081129;27;20448;-87
2022/07/17 03:20:04;;;;;;;5.13;4.13;;;19.20;46.40;;;;;;5110659;27;21010;-86
2022/07/17 03:22:31;;;;;;;4.50;3.33;;;19.10;46.70;;;;;;5127399;27;20508;-87
2022/07/17 03:24:59;;;;;;;3.53;3.23;;;19.10;46.40;;;;;;5121976;27;20484;-87
2022/07/17 03:27:26;;;;;;;3.83;3.40;;;19.10;46.40;;;;;;5117932;27;20489;-86
2022/07/17 03:29:54;;;;;;;5.10;3.37;;;19.10;46.40;;;;;;5107892;27;20488;-87
2022/07/17 03:32:21;;;;;;;3.97;3.67;;;19.00;46.50;;;;;;5138300;27;20532;-88
2022/07/17 03:34:49;;;;;;;3.27;3.07;;;19.00;46.60;;;;;;5128193;27;20533;-86
2022/07/17 03:37:16;;;;;;;3.07;2.87;;;19.00;46.90;;;;;;5120024;27;20458;-86
2022/07/17 03:39:43;;;;;;;4.03;3.63;;;18.90;46.90;;;;;;5140550;27;20461;-86
2022/07/17 03:42:11;;;;;;;3.73;3.40;;;18.90;46.80;;;;;;5119960;27;20465;-86
2022/07/17 03:44:38;;;;;;;3.23;2.97;;;18.90;46.70;;;;;;5114875;27;20449;-86
2022/07/17 03:47:05;;;;;;;3.53;3.23;;;18.90;47.00;;;;;;5080198;27;20497;-88
2022/07/17 03:49:32;;;;;;;6.63;3.10;;;18.90;47.50;;;;;;5113680;27;20494;-87
2022/07/17 03:51:59;;;;;;;5.80;3.63;;;18.80;47.70;;;;;;5098163;27;20445;-86
2022/07/17 03:54:26;;;;;;;5.23;3.47;;;18.80;48.10;;;;;;5125161;27;20485;-86
2022/07/17 03:56:53;;;;;;;3.90;3.33;;;18.80;48.00;;;;;;5095356;27;20445;-88
2022/07/17 03:59:22;;;;;;;3.67;3.40;;;18.70;48.10;;;;;;5122972;27;20516;-87
2022/07/17 04:01:49;;;;;;;4.37;4.00;;;18.60;48.50;;;;;;5106124;27;20467;-86
2022/07/17 04:04:16;;;;;;;3.87;3.57;;;18.70;48.70;;;;;;5103841;27;20451;-86
2022/07/17 04:06:43;;;;;;;6.07;3.53;;;18.70;48.60;;;;;;5144533;27;20507;-87
2022/07/17 04:09:10;;;;;;;4.80;2.97;;;18.70;48.50;;;;;;5088114;27;20436;-87
2022/07/17 04:11:37;;;;;;;3.83;3.53;;;18.60;48.20;;;;;;5100093;27;20564;-86
2022/07/17 04:14:04;;;;;;;4.80;3.27;;;18.70;48.20;;;;;;5104102;27;20449;-86
2022/07/17 04:16:32;;;;;;;4.40;3.60;;;18.70;48.40;;;;;;5109501;27;20445;-87
2022/07/17 04:18:59;;;;;;;3.73;3.40;;;18.70;48.40;;;;;;5124533;27;20440;-86
2022/07/17 04:22:17;;;;;;;3.50;3.20;;;18.70;48.40;;;;;;5128895;27;20553;-86
2022/07/17 04:25:10;;;;;;;3.73;3.43;;;18.70;48.70;;;;;;5114751;27;20530;-87
2022/07/17 04:32:11;;;;;;;3.10;2.90;;;18.60;48.20;;;;;;5104704;27;20480;-87
2022/07/17 04:34:38;;;;;;;3.50;3.20;;;18.60;48.60;;;;;;5123882;27;20448;-86
2022/07/17 04:37:05;;;;;;;3.97;3.30;;;18.60;48.80;;;;;;5103785;27;20453;-86
2022/07/17 04:39:32;;;;;;;4.27;3.77;;;18.60;48.70;;;;;;5122258;27;21041;-86
2022/07/17 04:42:50;;;;;;;4.20;3.70;;;18.60;48.90;;;;;;5106542;27;20461;-86
2022/07/17 04:46:32;;;;;;;5.63;3.60;;;18.60;48.90;;;;;;5122759;27;20444;-88
2022/07/17 04:49:00;;;;;;;4.73;3.90;;;18.60;49.00;;;;;;5101966;27;21085;-86
2022/07/17 04:51:27;;;;;;;3.90;3.60;;;18.60;49.30;;;;;;5123616;27;20472;-86
2022/07/17 04:53:54;;;;;;;3.43;3.13;;;18.60;49.20;;;;;;5100819;27;20682;-85
2022/07/17 04:56:22;;;;;;;3.37;3.17;;;18.60;49.10;;;;;;5094530;27;20464;-86
2022/07/17 04:58:49;;;;;;;4.57;3.33;;;18.60;49.40;;;;;;5090248;27;20525;-87
2022/07/17 05:14:56;;;;;;;5.93;3.20;;;18.50;49.30;;;;;;5084185;27;20535;-86
2022/07/17 05:17:23;;;;;;;3.93;2.80;;;18.60;49.20;;;;;;5117962;27;20962;-86
2022/07/17 05:19:52;;;;;;;4.67;3.33;;;18.60;49.00;;;;;;5103279;27;20483;-85
2022/07/17 05:22:19;;;;;;;6.53;3.60;;;18.60;49.40;;;;;;5120622;27;20963;-87
2022/07/17 05:24:46;;;;;;;3.60;3.30;;;18.60;49.30;;;;;;5111065;27;20479;-86
2022/07/17 05:27:13;;;;;;;3.93;3.53;;;18.70;49.50;;;;;;5107564;27;20505;-86
2022/07/17 05:29:40;;;;;;;3.40;3.10;;;18.70;49.20;;;;;;5138533;27;20464;-87
2022/07/17 05:32:32;;;;;;;4.57;3.20;;;18.60;49.50;;;;;;5103122;27;20504;-88
2022/07/17 05:35:01;;;;;;;5.73;3.43;;;18.60;49.90;;;;;;5103947;27;20449;-86
2022/07/17 05:38:19;;;;;;;3.30;3.10;;;18.70;49.80;;;;;;5111796;27;20811;-88
2022/07/17 05:40:46;;;;;;;4.63;3.03;;;18.90;49.80;;;;;;5105180;27;20469;-86
2022/07/17 05:43:13;;;;;;;3.10;2.80;;;19.00;49.60;;;;;;5105622;27;20438;-87
2022/07/17 05:45:40;;;;;;;5.40;2.90;;;19.10;49.50;;;;;;5140206;27;20453;-87
2022/07/17 05:51:00;;;;;;;3.47;3.17;;;19.10;48.60;;;;;;5136811;27;20469;-86
2022/07/17 05:53:27;;;;;;;4.93;2.40;;;19.10;47.90;;;;;;5106393;27;20560;-86
2022/07/17 05:55:54;;;;;;;5.40;2.67;;;18.90;47.20;;;;;;5122606;27;20455;-87
2022/07/17 05:58:21;;;;;;;6.20;2.73;;;19.10;48.20;;;;;;5138210;27;20455;-88
2022/07/17 06:00:48;;;;;;;3.00;2.53;;;19.40;47.60;;;;;;5124049;27;20514;-87
2022/07/17 06:03:15;;;;;;;3.80;2.67;;;19.40;47.40;;;;;;5134530;27;20504;-86
2022/07/17 06:05:42;;;;;;;10.03;2.67;;;19.40;48.80;;;;;;5088546;27;20455;-87
2022/07/17 06:08:36;;;;;;;2.60;2.37;;;19.40;48.00;;;;;;5136298;27;20464;-87
2022/07/17 06:11:53;;;;;;;4.77;3.00;;;19.50;47.20;;;;;;5138149;27;20460;-87
2022/07/17 06:14:45;;;;;;;4.00;2.80;;;19.30;47.00;;;;;;5121169;27;20484;-87
2022/07/17 06:17:11;;;;;;;4.70;2.10;;;19.40;47.00;;;;;;5119002;27;21263;-86
2022/07/17 06:19:38;;;;;;;11.83;2.80;;;19.60;47.20;;;;;;5102559;27;20593;-86
2022/07/17 06:22:30;;;;;;;3.93;2.83;;;19.70;47.00;;;;;;5140314;27;20922;-86
2022/07/17 06:24:59;;;;;;;3.00;2.10;;;19.80;46.50;;;;;;5109379;27;20447;-86
2022/07/17 06:27:26;;;;;;;2.40;2.20;;;20.10;46.20;;;;;;5110677;27;20449;-86
2022/07/17 06:29:53;;;;;;;8.37;2.30;;;20.50;46.00;;;;;;5101672;27;20460;-87
2022/07/17 06:32:20;;;;;;;6.40;2.60;;;20.50;45.00;;;;;;5088345;27;20449;-86
2022/07/17 06:34:47;;;;;;;3.00;1.90;;;20.50;45.20;;;;;;5124968;27;20437;-86
2022/07/17 06:37:14;;;;;;;2.17;2.00;;;20.90;45.00;;;;;;5121866;27;20452;-86
2022/07/17 06:39:41;;;;;;;2.80;2.40;;;21.30;44.50;;;;;;5115838;27;20982;-86
2022/07/17 06:42:10;;;;;;;2.83;2.10;;;21.60;44.30;;;;;;5124696;27;20874;-88
2022/07/17 06:44:37;;;;;;;5.50;1.93;;;21.90;44.20;;;;;;5104708;27;20432;-86
2022/07/17 06:47:04;;;;;;;4.00;2.07;;;22.10;43.40;;;;;;5134141;27;20505;-88
2022/07/17 06:53:42;;;;;;;2.90;2.07;;;22.30;42.00;;;;;;5118961;27;21237;-86
2022/07/17 06:56:09;;;;;;;6.77;2.80;;;22.10;41.30;;;;;;5095017;27;20449;-86
2022/07/17 06:58:37;;;;;;;4.10;2.00;;;22.20;41.90;;;;;;5087488;27;20805;-88
2022/07/17 07:01:04;;;;;;;2.13;1.93;;;22.50;41.80;;;;;;5067182;27;20464;-87
2022/07/17 07:07:13;;;;;;;2.17;1.97;;;22.70;39.80;;;;;;5119444;27;21149;-89
2022/07/17 07:09:40;;;;;;;3.10;2.10;;;22.60;40.70;;;;;;5123906;27;20461;-89
2022/07/17 07:12:07;;;;;;;4.43;1.60;;;22.70;41.00;;;;;;5083876;27;20460;-89
2022/07/17 07:14:35;;;;;;;3.30;1.70;;;23.00;40.60;;;;;;5091110;27;20461;-88
2022/07/17 07:17:02;;;;;;;2.63;2.00;;;23.10;39.90;;;;;;5090132;27;20796;-87
2022/07/17 07:19:30;;;;;;;3.47;1.77;;;23.10;38.70;;;;;;5105772;27;20470;-86
2022/07/17 07:21:56;;;;;;;3.37;1.40;;;23.00;38.30;;;;;;5106219;27;20552;-85
2022/07/17 07:24:24;;;;;;;3.90;1.57;;;23.00;38.00;;;;;;5120148;27;20484;-87
2022/07/17 07:26:51;;;;;;;3.47;1.80;;;23.30;37.70;;;;;;5097954;27;20444;-87
2022/07/17 07:33:27;;;;;;;4.80;1.60;;;23.90;37.00;;;;;;5136478;27;20533;-85
2022/07/17 07:35:54;;;;;;;2.47;1.50;;;23.80;36.20;;;;;;5096492;27;20566;-85
2022/07/17 07:38:21;;;;;;;3.20;1.40;;;23.70;36.30;;;;;;5087016;27;20536;-85
2022/07/17 07:40:48;;;;;;;2.73;1.43;;;24.00;36.40;;;;;;5119378;27;21001;-86
2022/07/17 07:47:51;;;;;;;2.40;1.30;;;24.40;36.00;;;;;;5103632;27;20413;-87
2022/07/17 07:50:22;;;;;;;2.37;1.43;;;24.60;34.40;;;;;;5118192;27;20468;-86
2022/07/17 07:52:49;;;;;;;3.17;1.40;;;24.60;34.70;;;;;;5138774;27;20452;-86
2022/07/17 07:55:16;;;;;;;2.43;1.37;;;24.60;34.80;;;;;;5141045;27;20968;-85
2022/07/17 07:57:43;;;;;;;5.40;1.40;;;24.60;34.70;;;;;;5121560;27;20833;-86
2022/07/17 08:00:13;;;;;;;2.73;1.50;;;24.90;33.40;;;;;;5137554;27;20552;-86
2022/07/17 08:02:40;;;;;;;1.87;1.70;;;24.80;32.70;;;;;;5121560;27;20872;-86
2022/07/17 08:05:08;;;;;;;2.40;1.53;;;24.80;34.00;;;;;;5137384;27;20460;-85
2022/07/17 08:11:42;;;;;;;1.40;1.13;;;25.00;32.90;;;;;;5143507;27;20449;-87
2022/07/17 08:14:09;;;;;;;2.40;1.33;;;25.30;33.10;;;;;;5121873;27;20528;-86
2022/07/17 08:16:36;;;;;;;1.30;1.20;;;25.60;32.80;;;;;;5140678;27;20460;-86
2022/07/17 08:22:47;;;;;;;3.70;1.87;;;25.90;31.80;;;;;;5124547;27;20453;-87
2022/07/17 08:25:14;;;;;;;1.67;1.40;;;25.70;32.20;;;;;;5112721;27;20445;-86
2022/07/17 08:27:44;;;;;;;1.77;1.47;;;25.90;31.80;;;;;;5143297;27;20445;-84
2022/07/17 08:30:14;;;;;;;2.90;1.13;;;26.20;31.80;;;;;;5138093;27;20479;-87
2022/07/17 08:32:41;;;;;;;2.80;1.10;;;26.30;31.40;;;;;;5143666;27;20479;-88
2022/07/17 08:35:10;;;;;;;5.60;1.50;;;26.40;30.40;;;;;;5120355;27;20529;-86
2022/07/17 08:37:44;;;;;;;4.10;1.20;;;26.60;31.20;;;;;;5103553;27;20541;-88
2022/07/17 08:44:45;;;;;;;1.80;1.20;;;26.40;29.80;;;;;;5122631;27;20930;-86
2022/07/17 08:47:13;;;;;;;2.63;1.60;;;26.30;31.20;;;;;;5104166;27;20565;-84
2022/07/17 08:53:48;;;;;;;7.13;1.57;;;26.70;29.50;;;;;;5125107;27;20480;-87
2022/07/17 08:57:06;;;;;;;2.23;1.37;;;26.80;29.60;;;;;;5106261;27;20993;-87
2022/07/17 09:04:33;;;;;;;4.50;1.40;;;26.90;30.10;;;;;;5100440;27;20778;-85
2022/07/17 09:07:02;;;;;;;3.33;1.27;;;27.50;28.90;;;;;;5141513;27;20611;-89
2022/07/17 09:09:29;;;;;;;1.60;1.27;;;27.70;28.20;;;;;;5121574;27;20521;-89
2022/07/17 09:11:59;;;;;;;2.70;1.50;;;28.00;29.20;;;;;;5142053;27;20476;-87
2022/07/17 09:14:37;;;;;;;1.30;1.20;;;28.10;27.40;;;;;;5119542;27;20445;-86
2022/07/17 09:17:05;;;;;;;3.73;1.40;;;28.20;27.10;;;;;;5082184;27;20542;-87
2022/07/17 09:19:35;;;;;;;1.83;1.13;;;28.00;27.10;;;;;;5110607;27;20437;-87
2022/07/17 09:22:08;;;;;;;1.73;1.13;;;27.90;26.90;;;;;;5120478;27;20477;-85
2022/07/17 09:24:41;;;;;;;2.17;1.40;;;28.10;27.80;;;;;;5143836;27;20452;-85
2022/07/17 09:27:09;;;;;;;2.70;1.40;;;28.30;27.30;;;;;;5121254;27;20952;-86
2022/07/17 09:29:51;;;;;;;2.60;1.43;;;28.50;27.00;;;;;;5141459;27;20462;-86
2022/07/17 09:32:18;;;;;;;2.50;1.60;;;28.80;26.40;;;;;;5092457;27;21185;-88
2022/07/17 09:34:48;;;;;;;1.93;1.27;;;28.90;26.90;;;;;;5143974;27;20477;-86
2022/07/17 09:37:15;;;;;;;2.20;1.30;;;29.20;26.70;;;;;;5132809;27;20462;-86
2022/07/17 09:39:43;;;;;;;1.80;1.43;;;29.40;26.40;;;;;;5122455;27;20480;-90
2022/07/17 09:42:10;;;;;;;7.67;1.40;;;29.40;25.70;;;;;;5110478;27;20825;-86
2022/07/17 09:44:38;;;;;;;1.80;1.30;;;29.40;26.10;;;;;;5143616;27;21114;-87
2022/07/17 09:47:05;;;;;;;2.30;1.27;;;29.50;25.90;;;;;;5107698;27;20453;-86
2022/07/17 09:49:33;;;;;;;1.50;1.30;;;29.70;25.50;;;;;;5099766;27;20442;-86
2022/07/17 09:52:03;;;;;;;3.17;1.10;;;30.00;25.80;;;;;;5141952;27;21012;-88
2022/07/17 09:54:32;;;;;;;1.50;1.30;;;30.20;24.70;;;;;;5078502;27;20448;-86
2022/07/17 09:56:59;;;;;;;2.10;1.30;;;30.20;25.10;;;;;;5105538;27;20438;-86
2022/07/17 09:59:32;;;;;;;2.83;1.30;;;30.40;24.90;;;;;;5125365;27;20464;-87
2022/07/17 10:02:00;;;;;;;2.30;1.20;;;30.50;24.20;;;;;;5125066;27;20518;-88
2022/07/17 10:04:28;;;;;;;2.13;1.30;;;30.80;24.50;;;;;;5119417;27;21039;-89
2022/07/17 10:06:56;;;;;;;4.10;1.50;;;31.00;24.90;;;;;;5138962;27;20525;-86
2022/07/17 10:09:24;;;;;;;1.60;1.30;;;30.80;24.10;;;;;;5140797;27;20843;-85
2022/07/17 10:11:52;;;;;;;1.67;1.10;;;30.90;24.10;;;;;;5142754;27;20444;-87
2022/07/17 10:14:20;;;;;;;1.30;1.20;;;31.10;24.50;;;;;;5133574;27;20521;-86
2022/07/17 10:16:47;;;;;;;2.67;1.30;;;31.30;23.10;;;;;;5124385;27;20433;-86
2022/07/17 10:19:19;;;;;;;1.27;1.03;;;31.10;23.50;;;;;;5117755;27;20457;-87
2022/07/17 10:21:56;;;;;;;1.33;1.10;;;30.80;23.70;;;;;;5142305;27;20496;-86
2022/07/17 10:24:25;;;;;;;1.10;1.00;;;30.80;24.20;;;;;;5120837;27;20476;-85
2022/07/17 10:26:52;;;;;;;3.17;1.43;;;31.10;24.90;;;;;;5121834;27;20449;-87
2022/07/17 10:29:31;;;;;;;3.20;1.20;;;31.20;23.60;;;;;;5118613;27;21234;-86
2022/07/17 10:31:59;;;;;;;1.30;1.20;;;31.10;23.20;;;;;;5141488;27;20448;-86
2022/07/17 10:34:44;;;;;;;1.43;1.30;;;30.90;23.40;;;;;;5124766;27;20465;-86
2022/07/17 10:37:16;;;;;;;1.17;1.03;;;30.90;23.80;;;;;;5120320;27;20987;-85
2022/07/17 10:43:52;;;;;;;2.70;1.40;;;30.60;23.00;;;;;;5143586;27;20461;-87
2022/07/17 10:46:19;;;;;;;1.43;1.27;;;30.90;23.10;;;;;;5119121;27;20441;-86
2022/07/17 10:48:49;;;;;;;3.50;1.47;;;31.20;23.70;;;;;;5115251;27;20453;-88
2022/07/17 10:51:17;;;;;;;3.03;1.50;;;31.30;22.80;;;;;;5127133;27;20457;-87
2022/07/17 10:53:44;;;;;;;4.60;1.40;;;31.60;24.10;;;;;;5114921;27;20542;-87
2022/07/17 10:56:12;;;;;;;4.80;1.50;;;31.70;22.30;;;;;;5105065;27;20571;-87
2022/07/17 10:58:41;;;;;;;2.17;1.10;;;31.70;22.30;;;;;;5115491;27;20472;-86
2022/07/17 11:01:12;;;;;;;1.40;1.20;;;31.60;21.60;;;;;;5093658;27;21287;-86
2022/07/17 11:07:53;;;;;;;2.10;1.40;;;31.40;22.10;;;;;;5121593;27;20553;-86
2022/07/17 11:10:20;;;;;;;1.83;1.30;;;31.50;21.70;;;;;;5096326;27;22691;-85
2022/07/17 11:12:47;;;;;;;3.93;2.07;;;31.50;22.30;;;;;;5139603;27;20440;-86
2022/07/17 11:15:14;;;;;;;1.83;1.40;;;31.90;22.30;;;;;;5117379;27;20461;-87
2022/07/17 11:17:47;;;;;;;3.40;1.30;;;32.00;21.70;;;;;;5133842;27;20476;-87
2022/07/17 11:20:15;;;;;;;2.30;1.27;;;31.80;21.20;;;;;;5110645;27;20479;-86
2022/07/17 11:22:42;;;;;;;7.60;1.30;;;31.60;21.50;;;;;;5119258;27;20659;-86
2022/07/17 11:25:11;;;;;;;2.17;1.77;;;31.70;22.50;;;;;;5094328;27;20463;-85
2022/07/17 11:27:39;;;;;;;1.77;1.37;;;32.10;21.60;;;;;;5087117;27;20456;-85
2022/07/17 11:30:15;;;;;;;1.53;1.43;;;32.30;21.40;;;;;;5087199;27;20484;-86
2022/07/17 11:32:52;;;;;;;2.03;1.30;;;32.30;21.10;;;;;;5121149;27;20532;-86
2022/07/17 11:35:20;;;;;;;4.10;1.90;;;32.20;21.10;;;;;;5109185;27;21336;-86
2022/07/17 11:37:49;;;;;;;4.10;1.60;;;32.30;21.80;;;;;;5104864;27;20564;-86
2022/07/17 11:46:51;;;;;;;1.63;1.20;;;32.80;21.30;;;;;;5139605;27;20483;-90
2022/07/17 11:49:27;;;;;;;1.73;1.30;;;33.10;21.00;;;;;;5116234;27;20441;-88
2022/07/17 11:51:56;;;;;;;2.43;1.40;;;33.40;19.90;;;;;;5142354;27;20470;-89
2022/07/17 11:54:23;;;;;;;2.10;1.30;;;32.90;19.90;;;;;;5131024;27;20951;-88
2022/07/17 11:56:54;;;;;;;5.57;1.97;;;33.00;20.10;;;;;;5105433;27;20461;-87
2022/07/17 12:05:36;;;;;;;2.50;1.60;;;33.40;20.20;;;;;;5114249;27;20440;-87
2022/07/17 12:08:03;;;;;;;2.90;1.70;;;33.80;19.80;;;;;;5144527;27;20452;-88
2022/07/17 12:10:32;;;;;;;1.37;1.07;;;33.60;19.50;;;;;;5140877;27;20467;-88
2022/07/17 12:13:01;;;;;;;1.43;1.20;;;33.70;18.80;;;;;;5124553;27;21140;-87
2022/07/17 12:15:36;;;;;;;2.73;1.30;;;33.40;19.60;;;;;;5138553;27;20727;-88
2022/07/17 12:18:04;;;;;;;5.47;1.40;;;33.30;18.90;;;;;;5123155;27;20455;-87
2022/07/17 12:20:46;;;;;;;2.00;1.43;;;32.80;18.90;;;;;;5110699;27;20465;-89
2022/07/17 12:23:27;;;;;;;1.93;1.53;;;33.10;20.00;;;;;;5135328;27;20469;-87
2022/07/17 12:26:04;;;;;;;2.10;1.30;;;33.50;19.30;;;;;;5123397;27;20528;-88
2022/07/17 12:32:42;;;;;;;3.00;1.20;;;33.40;20.00;;;;;;5123081;27;20515;-88
2022/07/17 12:35:09;;;;;;;6.20;1.20;;;33.10;19.00;;;;;;5132408;27;20461;-87
2022/07/17 12:37:38;;;;;;;1.30;1.10;;;33.40;19.10;;;;;;5126650;27;20485;-88
2022/07/17 12:42:57;;;;;;;1.77;1.30;;;33.00;18.00;;;;;;5135830;27;20827;-89
2022/07/17 12:45:24;;;;;;;2.43;1.40;;;33.20;17.70;;;;;;5101364;27;20437;-89
2022/07/17 12:47:51;;;;;;;1.97;1.40;;;33.30;18.70;;;;;;5132669;27;20922;-86
2022/07/17 13:00:34;;;;;;;1.43;1.07;;;33.70;18.90;;;;;;5118568;27;21449;-90
2022/07/17 13:03:03;;;;;;;1.50;1.33;;;33.90;18.30;;;;;;5118934;27;20492;-89
2022/07/17 13:05:30;;;;;;;1.73;1.33;;;34.00;17.80;;;;;;5140504;27;21195;-88
2022/07/17 13:07:57;;;;;;;2.83;1.27;;;34.20;17.40;;;;;;5118854;27;20960;-89
2022/07/17 13:10:26;;;;;;;1.60;1.27;;;34.40;18.10;;;;;;5129106;27;20476;-88
2022/07/17 13:12:53;;;;;;;4.63;1.37;;;34.30;17.90;;;;;;5137362;27;20597;-87
2022/07/17 13:15:20;;;;;;;2.17;1.30;;;34.20;17.60;;;;;;5101315;27;20999;-87
2022/07/17 13:17:47;;;;;;;4.03;1.20;;;34.30;17.30;;;;;;5121216;27;20576;-89
2022/07/17 13:20:14;;;;;;;1.80;1.20;;;34.20;17.30;;;;;;5128895;27;20499;-87
2022/07/17 13:27:15;;;;;;;1.47;1.20;;;34.70;17.10;;;;;;5116484;27;20585;-88
2022/07/17 13:29:42;;;;;;;1.50;1.10;;;34.70;17.00;;;;;;5108661;27;20563;-90
2022/07/17 13:32:09;;;;;;;1.13;1.03;;;34.80;16.90;;;;;;5131619;27;21200;-87
2022/07/17 13:39:07;;;;;;;2.50;1.20;;;34.40;16.70;;;;;;5134790;27;20433;-88
2022/07/17 13:41:34;;;;;;;2.70;1.30;;;34.10;16.60;;;;;;5140208;27;20473;-90
2022/07/17 13:44:03;;;;;;;2.23;1.20;;;34.20;16.40;;;;;;5134997;27;20476;-88
2022/07/17 13:46:30;;;;;;;1.40;1.30;;;34.30;16.50;;;;;;5121678;27;20468;-89
2022/07/17 13:48:57;;;;;;;1.97;1.50;;;34.40;16.80;;;;;;5116406;27;20505;-87
2022/07/17 13:51:24;;;;;;;3.00;1.40;;;34.40;16.60;;;;;;5101087;27;20470;-89
2022/07/17 13:54:41;;;;;;;3.20;1.60;;;34.60;15.90;;;;;;5132817;27;20482;-89
2022/07/17 13:57:34;;;;;;;1.67;1.20;;;34.60;16.30;;;;;;5132536;27;20457;-87
2022/07/17 14:00:02;;;;;;;2.50;1.33;;;34.60;16.30;;;;;;5137631;27;20483;-90
2022/07/17 14:02:38;;;;;;;2.57;1.50;;;34.50;16.00;;;;;;5139372;27;21002;-88
2022/07/17 14:05:06;;;;;;;2.73;1.10;;;34.60;15.60;;;;;;5131523;27;20461;-87
2022/07/17 14:07:34;;;;;;;5.07;1.43;;;34.50;16.10;;;;;;5117070;27;20445;-87
2022/07/17 14:27:47;;;;;;;1.50;1.40;;;34.90;14.80;;;;;;5118379;27;20420;-87
2022/07/17 14:30:14;;;;;;;2.20;1.10;;;34.80;15.50;;;;;;5116600;27;20480;-88
2022/07/17 14:39:13;;;;;;;2.10;1.53;;;34.80;15.10;;;;;;5117231;27;20476;-89
2022/07/17 14:41:40;;;;;;;2.20;1.27;;;34.90;15.50;;;;;;5118656;27;20811;-87
2022/07/17 14:51:07;;;;;;;2.10;1.40;;;34.30;14.80;;;;;;5140001;27;20456;-89
2022/07/17 14:58:06;;;;;;;1.33;1.23;;;34.00;15.40;;;;;;5121658;27;21132;-87
2022/07/17 15:00:34;;;;;;;1.50;1.10;;;34.10;15.30;;;;;;5141218;27;20460;-88
2022/07/17 15:03:01;;;;;;;1.57;1.30;;;34.30;14.80;;;;;;5143188;27;20806;-88
2022/07/17 15:05:28;;;;;;;2.17;1.10;;;34.60;15.10;;;;;;5138487;27;20468;-87
2022/07/17 15:07:55;;;;;;;2.27;1.03;;;34.40;15.00;;;;;;5145589;27;20441;-88
2022/07/17 15:10:22;;;;;;;2.60;1.63;;;34.30;15.20;;;;;;5122343;27;21034;-88
2022/07/17 15:12:49;;;;;;;1.50;1.20;;;34.40;15.70;;;;;;5126499;27;20667;-89
2022/07/17 15:15:16;;;;;;;1.50;1.37;;;34.30;15.40;;;;;;5110905;27;20456;-89
2022/07/17 15:17:44;;;;;;;2.87;1.60;;;34.20;15.00;;;;;;5145593;27;20943;-89
2022/07/17 15:20:12;;;;;;;2.40;1.20;;;34.00;15.30;;;;;;5118602;27;20472;-88
2022/07/17 15:30:28;;;;;;;1.80;1.63;;;34.00;14.60;;;;;;5120862;27;20500;-88
2022/07/17 15:32:56;;;;;;;2.07;1.20;;;34.00;15.70;;;;;;5106812;27;20448;-88
2022/07/17 15:35:26;;;;;;;4.07;1.67;;;33.80;15.00;;;;;;5112525;27;20514;-88
2022/07/17 15:37:53;;;;;;;2.07;1.33;;;33.80;15.30;;;;;;5120537;27;20503;-89
2022/07/17 15:40:20;;;;;;;1.50;1.20;;;33.90;15.60;;;;;;5117746;27;20476;-87
2022/07/17 15:46:55;;;;;;;1.47;1.23;;;34.20;15.20;;;;;;5143290;27;20443;-89
2022/07/17 15:49:25;;;;;;;1.60;1.50;;;34.20;14.90;;;;;;5134094;27;20481;-88
2022/07/17 16:00:07;;;;;;;2.13;1.50;;;34.10;15.30;;;;;;5121999;27;20437;-86
2022/07/17 16:02:38;;;;;;;1.57;1.10;;;33.80;15.60;;;;;;5122210;27;21076;-90
2022/07/17 16:05:07;;;;;;;2.27;1.30;;;33.80;15.00;;;;;;5122060;27;20546;-87
2022/07/17 16:07:34;;;;;;;1.67;1.27;;;33.90;15.90;;;;;;5116554;27;20823;-88
2022/07/17 16:10:01;;;;;;;2.20;1.60;;;34.10;15.70;;;;;;5136540;27;20465;-87